sensor_id;sensor_type;location;lat;lon;timestamp;temperature;humidity
76305;DHT22;65111;50.536;19.204;2023-01-29T00:01:51;-3275.80;87.70
76305;DHT22;65111;50.536;19.204;2023-01-29T00:04:17;-3275.80;87.50
76305;DHT22;65111;50.536;19.204;2023-01-29T00:06:43;-3275.70;87.30
76305;DHT22;65111;50.536;19.204;2023-01-29T00:09:10;-3275.80;87.10
76305;DHT22;65111;50.536;19.204;2023-01-29T00:11:37;-3275.90;87.00
76305;DHT22;65111;50.536;19.204;2023-01-29T00:14:03;-3275.80;86.70
76305;DHT22;65111;50.536;19.204;2023-01-29T00:16:29;-3275.90;86.50
76305;DHT22;65111;50.536;19.204;2023-01-29T00:18:55;-3275.80;86.50
76305;DHT22;65111;50.536;19.204;2023-01-29T00:21:22;-3275.70;86.50
76305;DHT22;65111;50.536;19.204;2023-01-29T00:23:48;-3275.60;86.50
76305;DHT22;65111;50.536;19.204;2023-01-29T00:26:15;-3275.60;86.60
76305;DHT22;65111;50.536;19.204;2023-01-29T00:28:41;-3275.60;86.50
76305;DHT22;65111;50.536;19.204;2023-01-29T00:31:09;-3275.80;86.50
76305;DHT22;65111;50.536;19.204;2023-01-29T00:33:36;-3275.70;86.60
76305;DHT22;65111;50.536;19.204;2023-01-29T00:36:06;-3275.80;86.50
76305;DHT22;65111;50.536;19.204;2023-01-29T00:38:33;-3275.60;86.60
76305;DHT22;65111;50.536;19.204;2023-01-29T00:41:13;-3275.70;86.40
76305;DHT22;65111;50.536;19.204;2023-01-29T00:43:59;-3275.60;86.30
76305;DHT22;65111;50.536;19.204;2023-01-29T00:46:44;-3275.70;86.30
76305;DHT22;65111;50.536;19.204;2023-01-29T00:49:10;-3275.70;86.30
76305;DHT22;65111;50.536;19.204;2023-01-29T00:51:37;-3275.70;86.00
76305;DHT22;65111;50.536;19.204;2023-01-29T00:54:04;-3275.70;85.90
76305;DHT22;65111;50.536;19.204;2023-01-29T00:56:33;-3275.60;85.90
76305;DHT22;65111;50.536;19.204;2023-01-29T00:59:00;-3275.50;85.90
76305;DHT22;65111;50.536;19.204;2023-01-29T01:01:26;-3275.60;85.90
76305;DHT22;65111;50.536;19.204;2023-01-29T01:04:11;-3275.60;85.80
76305;DHT22;65111;50.536;19.204;2023-01-29T01:06:38;-3275.50;86.00
76305;DHT22;65111;50.536;19.204;2023-01-29T01:09:05;-3275.50;85.90
76305;DHT22;65111;50.536;19.204;2023-01-29T01:11:50;-3275.60;86.00
76305;DHT22;65111;50.536;19.204;2023-01-29T01:14:18;-3275.50;86.00
76305;DHT22;65111;50.536;19.204;2023-01-29T01:16:45;-3275.70;85.80
76305;DHT22;65111;50.536;19.204;2023-01-29T01:19:12;-3275.50;86.00
76305;DHT22;65111;50.536;19.204;2023-01-29T01:21:38;-3275.50;86.00
76305;DHT22;65111;50.536;19.204;2023-01-29T01:24:05;-3275.60;85.90
76305;DHT22;65111;50.536;19.204;2023-01-29T01:26:31;-3275.50;86.00
76305;DHT22;65111;50.536;19.204;2023-01-29T01:28:58;-3275.50;85.90
76305;DHT22;65111;50.536;19.204;2023-01-29T01:31:24;-3275.60;85.90
76305;DHT22;65111;50.536;19.204;2023-01-29T01:33:50;-3275.60;85.90
76305;DHT22;65111;50.536;19.204;2023-01-29T01:36:18;-3275.60;85.70
76305;DHT22;65111;50.536;19.204;2023-01-29T01:38:44;-3275.50;85.70
76305;DHT22;65111;50.536;19.204;2023-01-29T01:41:13;-3275.50;85.50
76305;DHT22;65111;50.536;19.204;2023-01-29T01:43:56;-3275.50;85.40
76305;DHT22;65111;50.536;19.204;2023-01-29T01:46:25;-3275.50;85.30
76305;DHT22;65111;50.536;19.204;2023-01-29T01:49:07;-3275.60;85.20
76305;DHT22;65111;50.536;19.204;2023-01-29T01:51:39;-3275.70;85.10
76305;DHT22;65111;50.536;19.204;2023-01-29T01:54:11;-3275.50;85.10
76305;DHT22;65111;50.536;19.204;2023-01-29T01:56:42;-3275.50;85.00
76305;DHT22;65111;50.536;19.204;2023-01-29T01:59:12;-3275.50;85.10
76305;DHT22;65111;50.536;19.204;2023-01-29T02:01:40;-3275.40;85.20
76305;DHT22;65111;50.536;19.204;2023-01-29T02:04:16;-3275.70;85.10
76305;DHT22;65111;50.536;19.204;2023-01-29T02:07:03;-3275.40;85.00
76305;DHT22;65111;50.536;19.204;2023-01-29T02:09:52;-3275.60;85.10
76305;DHT22;65111;50.536;19.204;2023-01-29T02:12:20;-3275.30;85.10
76305;DHT22;65111;50.536;19.204;2023-01-29T02:14:47;-3275.50;85.10
76305;DHT22;65111;50.536;19.204;2023-01-29T02:17:15;-3275.30;84.90
76305;DHT22;65111;50.536;19.204;2023-01-29T02:33:33;-3275.10;84.80
76305;DHT22;65111;50.536;19.204;2023-01-29T02:38:49;-3275.30;84.60
76305;DHT22;65111;50.536;19.204;2023-01-29T02:44:18;-3275.20;84.60
76305;DHT22;65111;50.536;19.204;2023-01-29T02:49:47;-3275.30;84.40
76305;DHT22;65111;50.536;19.204;2023-01-29T02:52:18;-3275.20;84.10
76305;DHT22;65111;50.536;19.204;2023-01-29T02:57:37;-3275.10;83.70
76305;DHT22;65111;50.536;19.204;2023-01-29T03:00:12;-3275.30;83.70
76305;DHT22;65111;50.536;19.204;2023-01-29T03:02:57;-3275.00;83.80
76305;DHT22;65111;50.536;19.204;2023-01-29T03:05:32;-3275.00;83.70
76305;DHT22;65111;50.536;19.204;2023-01-29T03:08:05;-3275.00;83.70
76305;DHT22;65111;50.536;19.204;2023-01-29T03:10:41;-3274.90;83.60
76305;DHT22;65111;50.536;19.204;2023-01-29T03:13:48;-3274.90;83.60
76305;DHT22;65111;50.536;19.204;2023-01-29T03:16:17;-3274.90;83.60
76305;DHT22;65111;50.536;19.204;2023-01-29T03:18:51;-3275.10;83.50
76305;DHT22;65111;50.536;19.204;2023-01-29T03:21:31;-3275.10;83.30
76305;DHT22;65111;50.536;19.204;2023-01-29T03:24:24;-3275.00;83.20
76305;DHT22;65111;50.536;19.204;2023-01-29T03:27:11;-3274.90;83.00
76305;DHT22;65111;50.536;19.204;2023-01-29T03:29:59;-3274.90;82.80
76305;DHT22;65111;50.536;19.204;2023-01-29T03:32:45;-3275.00;82.60
76305;DHT22;65111;50.536;19.204;2023-01-29T03:35:14;-3275.10;82.40
76305;DHT22;65111;50.536;19.204;2023-01-29T03:37:47;-3275.00;82.30
76305;DHT22;65111;50.536;19.204;2023-01-29T03:40:14;-3275.00;82.20
76305;DHT22;65111;50.536;19.204;2023-01-29T03:42:52;-3274.90;82.00
76305;DHT22;65111;50.536;19.204;2023-01-29T03:48:21;-3274.90;82.00
76305;DHT22;65111;50.536;19.204;2023-01-29T03:51:27;-3275.00;82.00
76305;DHT22;65111;50.536;19.204;2023-01-29T03:54:05;-3274.90;82.00
76305;DHT22;65111;50.536;19.204;2023-01-29T04:01:56;-3274.80;82.20
76305;DHT22;65111;50.536;19.204;2023-01-29T04:04:33;-3274.70;82.40
76305;DHT22;65111;50.536;19.204;2023-01-29T04:07:21;-3274.80;82.50
76305;DHT22;65111;50.536;19.204;2023-01-29T04:09:55;-3274.70;82.60
76305;DHT22;65111;50.536;19.204;2023-01-29T04:12:30;-3274.70;82.50
76305;DHT22;65111;50.536;19.204;2023-01-29T04:15:00;-3274.70;82.40
76305;DHT22;65111;50.536;19.204;2023-01-29T04:17:32;-3274.70;82.30
76305;DHT22;65111;50.536;19.204;2023-01-29T04:20:00;-3274.60;82.30
76305;DHT22;65111;50.536;19.204;2023-01-29T04:22:35;-3274.50;82.30
76305;DHT22;65111;50.536;19.204;2023-01-29T04:25:04;-3274.60;82.10
76305;DHT22;65111;50.536;19.204;2023-01-29T04:50:12;-3274.40;81.80
76305;DHT22;65111;50.536;19.204;2023-01-29T04:52:43;-3274.40;81.60
76305;DHT22;65111;50.536;19.204;2023-01-29T04:55:37;-3274.60;81.70
76305;DHT22;65111;50.536;19.204;2023-01-29T05:00:42;-3274.60;81.90
76305;DHT22;65111;50.536;19.204;2023-01-29T05:03:13;-3274.50;81.90
76305;DHT22;65111;50.536;19.204;2023-01-29T05:05:42;-3274.50;82.00
76305;DHT22;65111;50.536;19.204;2023-01-29T05:08:13;-3274.60;81.90
76305;DHT22;65111;50.536;19.204;2023-01-29T05:10:41;-3274.50;82.00
76305;DHT22;65111;50.536;19.204;2023-01-29T05:13:11;-3274.60;81.90
76305;DHT22;65111;50.536;19.204;2023-01-29T05:15:47;-3274.60;81.80
76305;DHT22;65111;50.536;19.204;2023-01-29T05:18:14;-3274.50;81.80
76305;DHT22;65111;50.536;19.204;2023-01-29T05:20:42;-3274.50;81.90
76305;DHT22;65111;50.536;19.204;2023-01-29T05:23:22;-3274.50;81.70
76305;DHT22;65111;50.536;19.204;2023-01-29T05:25:49;-3274.50;81.80
76305;DHT22;65111;50.536;19.204;2023-01-29T05:28:16;-3274.60;81.80
76305;DHT22;65111;50.536;19.204;2023-01-29T05:30:47;-3274.50;81.80
76305;DHT22;65111;50.536;19.204;2023-01-29T05:33:28;-3274.60;81.80
76305;DHT22;65111;50.536;19.204;2023-01-29T05:35:56;-3274.60;81.70
76305;DHT22;65111;50.536;19.204;2023-01-29T05:38:23;-3274.70;81.50
76305;DHT22;65111;50.536;19.204;2023-01-29T05:40:49;-3274.60;81.60
76305;DHT22;65111;50.536;19.204;2023-01-29T05:43:20;-3274.80;81.60
76305;DHT22;65111;50.536;19.204;2023-01-29T05:45:54;-3274.70;81.50
76305;DHT22;65111;50.536;19.204;2023-01-29T05:48:21;-3274.70;81.50
76305;DHT22;65111;50.536;19.204;2023-01-29T05:50:47;-3274.60;81.50
76305;DHT22;65111;50.536;19.204;2023-01-29T05:53:13;-3274.70;81.40
76305;DHT22;65111;50.536;19.204;2023-01-29T05:55:43;-3274.70;81.50
76305;DHT22;65111;50.536;19.204;2023-01-29T05:58:10;-3274.70;81.40
76305;DHT22;65111;50.536;19.204;2023-01-29T06:00:36;-3274.70;81.50
76305;DHT22;65111;50.536;19.204;2023-01-29T06:03:02;-3274.60;81.50
76305;DHT22;65111;50.536;19.204;2023-01-29T06:05:28;-3274.70;81.50
76305;DHT22;65111;50.536;19.204;2023-01-29T06:07:54;-3274.70;81.40
76305;DHT22;65111;50.536;19.204;2023-01-29T06:10:20;-3274.90;81.50
76305;DHT22;65111;50.536;19.204;2023-01-29T06:12:47;-3274.80;81.60
76305;DHT22;65111;50.536;19.204;2023-01-29T06:15:13;-3274.80;81.60
76305;DHT22;65111;50.536;19.204;2023-01-29T06:17:44;-3274.60;81.70
76305;DHT22;65111;50.536;19.204;2023-01-29T06:20:11;-3274.70;81.70
76305;DHT22;65111;50.536;19.204;2023-01-29T06:22:37;-3274.80;81.80
76305;DHT22;65111;50.536;19.204;2023-01-29T06:25:03;-3274.80;81.80
76305;DHT22;65111;50.536;19.204;2023-01-29T06:27:29;-3274.70;81.80
76305;DHT22;65111;50.536;19.204;2023-01-29T06:29:54;-3274.80;81.90
76305;DHT22;65111;50.536;19.204;2023-01-29T06:32:20;-3274.70;81.90
76305;DHT22;65111;50.536;19.204;2023-01-29T06:34:46;-3274.80;82.00
76305;DHT22;65111;50.536;19.204;2023-01-29T06:37:12;-3274.70;82.20
76305;DHT22;65111;50.536;19.204;2023-01-29T06:39:38;-3274.70;82.40
76305;DHT22;65111;50.536;19.204;2023-01-29T06:42:04;-3274.80;82.60
76305;DHT22;65111;50.536;19.204;2023-01-29T06:44:30;-3274.80;82.60
76305;DHT22;65111;50.536;19.204;2023-01-29T06:46:56;-3274.90;83.00
76305;DHT22;65111;50.536;19.204;2023-01-29T06:49:22;-3274.90;83.00
76305;DHT22;65111;50.536;19.204;2023-01-29T06:51:48;-3275.00;82.90
76305;DHT22;65111;50.536;19.204;2023-01-29T06:54:14;-3275.00;82.90
76305;DHT22;65111;50.536;19.204;2023-01-29T06:56:40;-3275.10;83.00
76305;DHT22;65111;50.536;19.204;2023-01-29T06:59:06;-3275.10;83.10
76305;DHT22;65111;50.536;19.204;2023-01-29T07:01:31;-3275.20;83.20
76305;DHT22;65111;50.536;19.204;2023-01-29T07:03:57;-3275.20;83.30
76305;DHT22;65111;50.536;19.204;2023-01-29T07:06:30;-3275.40;83.20
76305;DHT22;65111;50.536;19.204;2023-01-29T07:08:56;-3275.50;83.20
76305;DHT22;65111;50.536;19.204;2023-01-29T07:11:22;-3275.50;83.20
76305;DHT22;65111;50.536;19.204;2023-01-29T07:13:48;-3275.70;83.10
76305;DHT22;65111;50.536;19.204;2023-01-29T07:16:14;-3275.70;83.30
76305;DHT22;65111;50.536;19.204;2023-01-29T07:18:40;-3275.60;83.30
76305;DHT22;65111;50.536;19.204;2023-01-29T07:21:06;-3275.60;83.50
76305;DHT22;65111;50.536;19.204;2023-01-29T07:23:33;-3275.80;83.70
76305;DHT22;65111;50.536;19.204;2023-01-29T07:26:01;-3275.70;83.80
76305;DHT22;65111;50.536;19.204;2023-01-29T07:28:27;-3275.70;84.00
76305;DHT22;65111;50.536;19.204;2023-01-29T07:30:57;-3275.80;84.00
76305;DHT22;65111;50.536;19.204;2023-01-29T07:33:24;-3275.60;84.20
76305;DHT22;65111;50.536;19.204;2023-01-29T07:35:50;-3275.70;84.30
76305;DHT22;65111;50.536;19.204;2023-01-29T07:38:17;-3275.80;84.40
76305;DHT22;65111;50.536;19.204;2023-01-29T07:40:43;-3275.90;84.30
76305;DHT22;65111;50.536;19.204;2023-01-29T07:43:09;-3275.70;84.40
76305;DHT22;65111;50.536;19.204;2023-01-29T07:45:37;-3275.90;84.30
76305;DHT22;65111;50.536;19.204;2023-01-29T07:48:05;-3275.90;84.30
76305;DHT22;65111;50.536;19.204;2023-01-29T07:50:32;-3276.10;84.20
76305;DHT22;65111;50.536;19.204;2023-01-29T07:53:00;-3276.10;83.90
76305;DHT22;65111;50.536;19.204;2023-01-29T07:55:26;-3276.20;83.60
76305;DHT22;65111;50.536;19.204;2023-01-29T07:58:00;-3276.60;83.30
76305;DHT22;65111;50.536;19.204;2023-01-29T08:00:28;-3276.50;83.10
76305;DHT22;65111;50.536;19.204;2023-01-29T08:03:04;-3276.70;83.00
76305;DHT22;65111;50.536;19.204;2023-01-29T08:05:32;-3276.60;82.60
76305;DHT22;65111;50.536;19.204;2023-01-29T08:07:58;0.00;82.50
76305;DHT22;65111;50.536;19.204;2023-01-29T08:10:24;0.10;82.30
76305;DHT22;65111;50.536;19.204;2023-01-29T08:12:58;0.30;82.00
76305;DHT22;65111;50.536;19.204;2023-01-29T08:15:25;0.70;81.30
76305;DHT22;65111;50.536;19.204;2023-01-29T08:17:51;1.40;80.40
76305;DHT22;65111;50.536;19.204;2023-01-29T08:20:18;1.40;79.40
76305;DHT22;65111;50.536;19.204;2023-01-29T08:22:45;1.70;78.60
76305;DHT22;65111;50.536;19.204;2023-01-29T08:25:12;2.20;77.80
76305;DHT22;65111;50.536;19.204;2023-01-29T08:27:39;2.30;77.60
76305;DHT22;65111;50.536;19.204;2023-01-29T08:30:06;3.10;76.80
76305;DHT22;65111;50.536;19.204;2023-01-29T08:32:32;3.70;75.00
76305;DHT22;65111;50.536;19.204;2023-01-29T08:34:58;4.30;73.60
76305;DHT22;65111;50.536;19.204;2023-01-29T08:37:24;5.50;71.00
76305;DHT22;65111;50.536;19.204;2023-01-29T08:39:50;6.40;69.10
76305;DHT22;65111;50.536;19.204;2023-01-29T08:42:16;7.50;66.00
76305;DHT22;65111;50.536;19.204;2023-01-29T08:44:42;8.20;63.60
76305;DHT22;65111;50.536;19.204;2023-01-29T08:47:08;9.30;61.30
76305;DHT22;65111;50.536;19.204;2023-01-29T08:49:34;10.60;59.10
76305;DHT22;65111;50.536;19.204;2023-01-29T08:51:59;11.50;54.50
76305;DHT22;65111;50.536;19.204;2023-01-29T08:54:25;11.70;53.30
76305;DHT22;65111;50.536;19.204;2023-01-29T08:56:51;11.10;53.40
76305;DHT22;65111;50.536;19.204;2023-01-29T08:59:17;10.50;53.10
76305;DHT22;65111;50.536;19.204;2023-01-29T09:01:43;9.90;54.50
76305;DHT22;65111;50.536;19.204;2023-01-29T09:04:09;8.90;55.70
76305;DHT22;65111;50.536;19.204;2023-01-29T09:06:35;7.70;55.70
76305;DHT22;65111;50.536;19.204;2023-01-29T09:09:01;6.60;56.80
76305;DHT22;65111;50.536;19.204;2023-01-29T09:11:27;5.40;58.30
76305;DHT22;65111;50.536;19.204;2023-01-29T09:13:53;4.60;59.10
76305;DHT22;65111;50.536;19.204;2023-01-29T09:16:19;3.90;60.70
76305;DHT22;65111;50.536;19.204;2023-01-29T09:18:45;3.70;61.80
76305;DHT22;65111;50.536;19.204;2023-01-29T09:21:10;3.00;62.80
76305;DHT22;65111;50.536;19.204;2023-01-29T09:23:37;2.90;63.20
76305;DHT22;65111;50.536;19.204;2023-01-29T09:26:03;2.80;63.70
76305;DHT22;65111;50.536;19.204;2023-01-29T09:28:29;2.60;63.70
76305;DHT22;65111;50.536;19.204;2023-01-29T09:30:55;2.60;63.70
76305;DHT22;65111;50.536;19.204;2023-01-29T09:33:21;2.50;63.90
76305;DHT22;65111;50.536;19.204;2023-01-29T09:35:49;2.50;64.40
76305;DHT22;65111;50.536;19.204;2023-01-29T09:38:15;2.80;64.10
76305;DHT22;65111;50.536;19.204;2023-01-29T09:40:54;3.00;63.90
76305;DHT22;65111;50.536;19.204;2023-01-29T09:43:30;2.90;64.00
76305;DHT22;65111;50.536;19.204;2023-01-29T09:46:14;2.90;64.00
76305;DHT22;65111;50.536;19.204;2023-01-29T09:48:43;3.20;63.80
76305;DHT22;65111;50.536;19.204;2023-01-29T09:51:23;3.20;63.00
76305;DHT22;65111;50.536;19.204;2023-01-29T09:57:06;3.00;63.70
76305;DHT22;65111;50.536;19.204;2023-01-29T09:59:35;3.10;63.50
76305;DHT22;65111;50.536;19.204;2023-01-29T10:02:04;3.20;63.30
76305;DHT22;65111;50.536;19.204;2023-01-29T10:04:58;3.70;62.90
76305;DHT22;65111;50.536;19.204;2023-01-29T10:10:13;4.50;61.60
76305;DHT22;65111;50.536;19.204;2023-01-29T10:17:48;5.90;58.30
76305;DHT22;65111;50.536;19.204;2023-01-29T10:23:37;10.20;52.20
76305;DHT22;65111;50.536;19.204;2023-01-29T10:26:10;12.00;49.10
76305;DHT22;65111;50.536;19.204;2023-01-29T10:28:41;13.20;47.90
76305;DHT22;65111;50.536;19.204;2023-01-29T10:31:21;14.50;45.30
76305;DHT22;65111;50.536;19.204;2023-01-29T10:33:53;15.40;43.30
76305;DHT22;65111;50.536;19.204;2023-01-29T10:36:25;15.70;43.20
76305;DHT22;65111;50.536;19.204;2023-01-29T10:38:53;15.80;41.50
76305;DHT22;65111;50.536;19.204;2023-01-29T10:41:24;15.40;42.20
76305;DHT22;65111;50.536;19.204;2023-01-29T10:44:11;15.60;43.10
76305;DHT22;65111;50.536;19.204;2023-01-29T10:52:48;15.10;41.00
76305;DHT22;65111;50.536;19.204;2023-01-29T11:00:34;13.10;43.10
76305;DHT22;65111;50.536;19.204;2023-01-29T11:03:31;12.60;44.20
76305;DHT22;65111;50.536;19.204;2023-01-29T11:06:20;12.30;44.70
76305;DHT22;65111;50.536;19.204;2023-01-29T11:09:05;12.80;43.90
76305;DHT22;65111;50.536;19.204;2023-01-29T11:11:43;13.80;43.30
76305;DHT22;65111;50.536;19.204;2023-01-29T11:14:23;14.80;42.40
76305;DHT22;65111;50.536;19.204;2023-01-29T11:16:50;15.70;40.40
76305;DHT22;65111;50.536;19.204;2023-01-29T11:19:16;15.70;40.00
76305;DHT22;65111;50.536;19.204;2023-01-29T11:21:59;15.80;39.20
76305;DHT22;65111;50.536;19.204;2023-01-29T11:24:26;15.80;39.60
76305;DHT22;65111;50.536;19.204;2023-01-29T11:26:58;15.70;40.30
76305;DHT22;65111;50.536;19.204;2023-01-29T11:29:46;15.30;40.30
76305;DHT22;65111;50.536;19.204;2023-01-29T11:32:23;15.10;40.60
76305;DHT22;65111;50.536;19.204;2023-01-29T11:37:42;14.00;40.60
76305;DHT22;65111;50.536;19.204;2023-01-29T11:40:36;12.80;42.00
76305;DHT22;65111;50.536;19.204;2023-01-29T11:43:29;12.10;43.50
76305;DHT22;65111;50.536;19.204;2023-01-29T11:46:10;11.40;43.90
76305;DHT22;65111;50.536;19.204;2023-01-29T11:48:42;10.80;44.60
76305;DHT22;65111;50.536;19.204;2023-01-29T11:51:13;10.30;45.20
76305;DHT22;65111;50.536;19.204;2023-01-29T11:53:51;9.80;46.00
76305;DHT22;65111;50.536;19.204;2023-01-29T11:56:22;9.30;46.60
76305;DHT22;65111;50.536;19.204;2023-01-29T11:58:53;8.80;47.40
76305;DHT22;65111;50.536;19.204;2023-01-29T12:01:31;8.60;47.70
76305;DHT22;65111;50.536;19.204;2023-01-29T12:03:58;8.20;48.00
76305;DHT22;65111;50.536;19.204;2023-01-29T12:06:35;8.00;48.40
76305;DHT22;65111;50.536;19.204;2023-01-29T12:09:15;8.10;48.40
76305;DHT22;65111;50.536;19.204;2023-01-29T12:11:42;8.00;48.70
76305;DHT22;65111;50.536;19.204;2023-01-29T12:14:26;7.90;49.00
76305;DHT22;65111;50.536;19.204;2023-01-29T12:17:11;7.30;49.40
76305;DHT22;65111;50.536;19.204;2023-01-29T12:19:56;7.00;50.40
76305;DHT22;65111;50.536;19.204;2023-01-29T12:22:39;6.40;51.20
76305;DHT22;65111;50.536;19.204;2023-01-29T12:27:55;5.50;52.60
76305;DHT22;65111;50.536;19.204;2023-01-29T12:34:12;5.00;54.20
76305;DHT22;65111;50.536;19.204;2023-01-29T12:36:46;4.70;55.20
76305;DHT22;65111;50.536;19.204;2023-01-29T12:39:18;4.40;55.60
76305;DHT22;65111;50.536;19.204;2023-01-29T12:44:37;4.40;55.90
76305;DHT22;65111;50.536;19.204;2023-01-29T12:47:13;4.30;56.30
76305;DHT22;65111;50.536;19.204;2023-01-29T12:49:42;4.10;56.90
76305;DHT22;65111;50.536;19.204;2023-01-29T12:52:17;4.10;57.20
76305;DHT22;65111;50.536;19.204;2023-01-29T12:54:51;4.10;57.10
76305;DHT22;65111;50.536;19.204;2023-01-29T12:58:00;4.10;57.30
76305;DHT22;65111;50.536;19.204;2023-01-29T13:05:46;4.40;57.40
76305;DHT22;65111;50.536;19.204;2023-01-29T13:08:44;4.60;57.10
76305;DHT22;65111;50.536;19.204;2023-01-29T13:11:25;4.50;56.80
76305;DHT22;65111;50.536;19.204;2023-01-29T13:13:58;4.20;57.10
76305;DHT22;65111;50.536;19.204;2023-01-29T13:16:29;4.30;57.20
76305;DHT22;65111;50.536;19.204;2023-01-29T13:19:33;4.30;57.60
76305;DHT22;65111;50.536;19.204;2023-01-29T13:22:01;4.20;57.90
76305;DHT22;65111;50.536;19.204;2023-01-29T13:24:38;4.30;58.00
76305;DHT22;65111;50.536;19.204;2023-01-29T13:27:05;4.10;58.20
76305;DHT22;65111;50.536;19.204;2023-01-29T13:29:32;3.90;58.10
76305;DHT22;65111;50.536;19.204;2023-01-29T13:32:03;4.00;58.30
76305;DHT22;65111;50.536;19.204;2023-01-29T13:34:42;3.80;58.70
76305;DHT22;65111;50.536;19.204;2023-01-29T13:37:23;3.60;59.30
76305;DHT22;65111;50.536;19.204;2023-01-29T13:39:54;3.40;59.10
76305;DHT22;65111;50.536;19.204;2023-01-29T13:42:24;3.20;59.50
76305;DHT22;65111;50.536;19.204;2023-01-29T13:44:55;3.20;60.10
76305;DHT22;65111;50.536;19.204;2023-01-29T13:47:25;3.00;60.50
76305;DHT22;65111;50.536;19.204;2023-01-29T14:08:38;2.10;63.60
76305;DHT22;65111;50.536;19.204;2023-01-29T14:13:41;2.00;64.30
76305;DHT22;65111;50.536;19.204;2023-01-29T14:18:48;1.90;65.40
76305;DHT22;65111;50.536;19.204;2023-01-29T14:21:22;1.80;65.60
76305;DHT22;65111;50.536;19.204;2023-01-29T14:23:51;1.60;65.90
76305;DHT22;65111;50.536;19.204;2023-01-29T14:34:30;1.30;67.40
76305;DHT22;65111;50.536;19.204;2023-01-29T14:37:15;1.40;67.50
76305;DHT22;65111;50.536;19.204;2023-01-29T14:39:46;1.20;67.90
76305;DHT22;65111;50.536;19.204;2023-01-29T14:42:22;1.10;68.10
76305;DHT22;65111;50.536;19.204;2023-01-29T14:52:44;0.80;69.40
76305;DHT22;65111;50.536;19.204;2023-01-29T14:55:55;0.90;69.50
76305;DHT22;65111;50.536;19.204;2023-01-29T14:58:43;0.90;69.70
76305;DHT22;65111;50.536;19.204;2023-01-29T15:01:35;0.80;69.80
76305;DHT22;65111;50.536;19.204;2023-01-29T15:04:04;0.90;70.30
76305;DHT22;65111;50.536;19.204;2023-01-29T15:09:14;0.70;70.50
76305;DHT22;65111;50.536;19.204;2023-01-29T15:11:55;0.70;70.10
76305;DHT22;65111;50.536;19.204;2023-01-29T15:14:31;0.60;70.10
76305;DHT22;65111;50.536;19.204;2023-01-29T15:23:01;0.40;70.50
76305;DHT22;65111;50.536;19.204;2023-01-29T15:25:46;0.50;71.00
76305;DHT22;65111;50.536;19.204;2023-01-29T15:28:14;0.20;70.90
76305;DHT22;65111;50.536;19.204;2023-01-29T15:30:40;0.30;71.00
76305;DHT22;65111;50.536;19.204;2023-01-29T15:33:09;0.00;71.20
76305;DHT22;65111;50.536;19.204;2023-01-29T15:35:38;0.00;72.00
76305;DHT22;65111;50.536;19.204;2023-01-29T15:38:25;0.10;72.00
76305;DHT22;65111;50.536;19.204;2023-01-29T15:40:58;0.00;72.40
76305;DHT22;65111;50.536;19.204;2023-01-29T15:45:57;0.00;72.70
76305;DHT22;65111;50.536;19.204;2023-01-29T15:48:34;0.00;72.50
76305;DHT22;65111;50.536;19.204;2023-01-29T15:51:05;0.00;72.60
76305;DHT22;65111;50.536;19.204;2023-01-29T15:53:39;-3276.70;72.70
76305;DHT22;65111;50.536;19.204;2023-01-29T15:56:16;0.00;72.30
76305;DHT22;65111;50.536;19.204;2023-01-29T15:58:46;0.00;72.50
76305;DHT22;65111;50.536;19.204;2023-01-29T16:01:13;0.00;72.80
76305;DHT22;65111;50.536;19.204;2023-01-29T16:03:40;-3276.60;73.20
76305;DHT22;65111;50.536;19.204;2023-01-29T16:06:08;-3276.70;73.20
76305;DHT22;65111;50.536;19.204;2023-01-29T16:08:34;-3276.60;73.20
76305;DHT22;65111;50.536;19.204;2023-01-29T16:11:02;-3276.60;73.50
76305;DHT22;65111;50.536;19.204;2023-01-29T16:13:32;-3276.60;73.40
76305;DHT22;65111;50.536;19.204;2023-01-29T16:18:46;-3276.40;73.80
76305;DHT22;65111;50.536;19.204;2023-01-29T16:21:21;-3276.50;74.00
76305;DHT22;65111;50.536;19.204;2023-01-29T16:24:08;-3276.60;74.00
76305;DHT22;65111;50.536;19.204;2023-01-29T16:26:41;0.00;73.80
76305;DHT22;65111;50.536;19.204;2023-01-29T16:29:13;-3276.60;73.50
76305;DHT22;65111;50.536;19.204;2023-01-29T16:31:41;0.00;73.80
76305;DHT22;65111;50.536;19.204;2023-01-29T16:34:14;-3276.70;73.70
76305;DHT22;65111;50.536;19.204;2023-01-29T16:36:44;0.00;73.70
76305;DHT22;65111;50.536;19.204;2023-01-29T16:39:22;0.00;73.60
76305;DHT22;65111;50.536;19.204;2023-01-29T16:44:49;0.10;73.60
76305;DHT22;65111;50.536;19.204;2023-01-29T16:47:34;-3276.70;73.40
76305;DHT22;65111;50.536;19.204;2023-01-29T16:50:34;-3276.70;73.40
76305;DHT22;65111;50.536;19.204;2023-01-29T16:53:03;0.00;73.70
76305;DHT22;65111;50.536;19.204;2023-01-29T16:55:38;0.00;73.80
76305;DHT22;65111;50.536;19.204;2023-01-29T16:58:14;0.00;73.60
76305;DHT22;65111;50.536;19.204;2023-01-29T17:00:46;0.00;74.00
76305;DHT22;65111;50.536;19.204;2023-01-29T17:03:14;0.00;73.70
76305;DHT22;65111;50.536;19.204;2023-01-29T17:05:42;0.00;73.70
76305;DHT22;65111;50.536;19.204;2023-01-29T17:08:20;0.00;74.40
76305;DHT22;65111;50.536;19.204;2023-01-29T17:10:47;0.00;74.40
76305;DHT22;65111;50.536;19.204;2023-01-29T17:13:39;-3276.70;74.80
76305;DHT22;65111;50.536;19.204;2023-01-29T17:16:24;0.00;75.30
76305;DHT22;65111;50.536;19.204;2023-01-29T17:18:51;0.00;75.50
76305;DHT22;65111;50.536;19.204;2023-01-29T17:21:17;-3276.70;75.50
76305;DHT22;65111;50.536;19.204;2023-01-29T17:23:43;-3276.70;75.40
76305;DHT22;65111;50.536;19.204;2023-01-29T17:26:11;-3276.60;75.70
76305;DHT22;65111;50.536;19.204;2023-01-29T17:28:39;-3276.70;75.70
76305;DHT22;65111;50.536;19.204;2023-01-29T17:31:05;-3276.70;75.70
76305;DHT22;65111;50.536;19.204;2023-01-29T17:33:36;-3276.50;75.90
76305;DHT22;65111;50.536;19.204;2023-01-29T17:36:03;-3276.60;76.00
76305;DHT22;65111;50.536;19.204;2023-01-29T17:38:29;-3276.70;75.70
76305;DHT22;65111;50.536;19.204;2023-01-29T17:40:58;-3276.60;75.70
76305;DHT22;65111;50.536;19.204;2023-01-29T17:43:24;-3276.50;75.70
76305;DHT22;65111;50.536;19.204;2023-01-29T17:45:51;-3276.70;76.00
76305;DHT22;65111;50.536;19.204;2023-01-29T17:48:25;-3276.70;76.40
76305;DHT22;65111;50.536;19.204;2023-01-29T17:50:57;-3276.60;76.80
76305;DHT22;65111;50.536;19.204;2023-01-29T17:53:24;-3276.40;77.40
76305;DHT22;65111;50.536;19.204;2023-01-29T17:55:50;-3276.50;77.90
76305;DHT22;65111;50.536;19.204;2023-01-29T17:58:21;-3276.50;78.20
76305;DHT22;65111;50.536;19.204;2023-01-29T18:00:47;-3276.40;78.90
76305;DHT22;65111;50.536;19.204;2023-01-29T18:03:14;-3276.30;79.20
76305;DHT22;65111;50.536;19.204;2023-01-29T18:05:41;-3276.40;79.40